Time;durP1;ratioP1;P1;durP2;ratioP2;P2;SDS_P1;SDS_P2;PMS_P1;PMS_P2;Temp;Humidity;BMP_temperature;BMP_pressure;BME280_temperature;BME280_humidity;BME280_pressure;Samples;Min_cycle;Max_cycle;Signal;HPM_P1;HPM_P2
2023/07/07 00:01:40;;;;;;;29.58;17.38;;;;;;;11.84;100.00;101761.13;5052996;28;20504;-47
2023/07/07 00:04:06;;;;;;;31.35;16.33;;;;;;;11.90;100.00;101757.88;5052795;28;20063;-47
2023/07/07 00:06:31;;;;;;;33.42;17.58;;;;;;;11.91;100.00;101762.22;5051939;28;20032;-44
2023/07/07 00:08:56;;;;;;;27.65;16.10;;;;;;;11.84;100.00;101750.78;5052523;28;20079;-46
2023/07/07 00:11:22;;;;;;;22.73;14.95;;;;;;;11.83;100.00;101752.47;5053351;28;20025;-47
2023/07/07 00:13:47;;;;;;;28.60;16.95;;;;;;;11.89;100.00;101766.44;5053248;28;20035;-47
2023/07/07 00:16:14;;;;;;;26.40;15.90;;;;;;;11.91;100.00;101762.22;5052375;28;20059;-44
2023/07/07 00:18:39;;;;;;;23.83;16.58;;;;;;;11.93;100.00;101757.97;5052656;28;20376;-48
2023/07/07 00:21:05;;;;;;;21.10;14.30;;;;;;;11.89;100.00;101771.59;5053021;28;20110;-44
2023/07/07 00:23:32;;;;;;;21.48;14.63;;;;;;;11.80;100.00;101762.69;5051744;28;20041;-45
2023/07/07 00:26:04;;;;;;;22.75;13.82;;;;;;;11.79;100.00;101766.09;5053067;28;20108;-44
2023/07/07 00:28:30;;;;;;;21.27;13.60;;;;;;;11.75;100.00;101769.38;5052799;28;20035;-48
2023/07/07 00:30:56;;;;;;;20.45;13.43;;;;;;;11.80;100.00;101765.28;5052184;28;20016;-48
2023/07/07 00:33:21;;;;;;;19.13;12.95;;;;;;;11.73;100.00;101765.84;5052850;28;20465;-47
2023/07/07 00:35:48;;;;;;;19.23;12.82;;;;;;;11.73;100.00;101764.97;5052529;28;20033;-50
2023/07/07 00:38:14;;;;;;;20.10;12.57;;;;;;;11.69;100.00;101758.78;5051981;28;20381;-49
2023/07/07 00:40:40;;;;;;;20.92;13.00;;;;;;;11.61;100.00;101762.78;5052674;28;20103;-47
2023/07/07 00:43:17;;;;;;;16.42;12.25;;;;;;;11.59;100.00;101769.56;5052924;28;20104;-49
2023/07/07 00:45:43;;;;;;;19.08;12.05;;;;;;;11.59;100.00;101764.41;5051536;28;20659;-49
2023/07/07 00:48:12;;;;;;;19.52;10.93;;;;;;;11.50;100.00;101770.97;5052680;28;20021;-47
2023/07/07 00:50:45;;;;;;;18.02;11.38;;;;;;;11.52;100.00;101766.75;5052020;28;20366;-49
2023/07/07 00:53:10;;;;;;;18.13;11.63;;;;;;;11.46;100.00;101760.47;5052280;28;20052;-48
2023/07/07 00:55:40;;;;;;;18.30;12.25;;;;;;;11.53;100.00;101759.91;5052506;28;20508;-50
2023/07/07 00:58:09;;;;;;;16.17;11.68;;;;;;;11.52;100.00;101768.47;5051981;28;20021;-49
2023/07/07 01:00:38;;;;;;;18.83;11.45;;;;;;;11.46;100.00;101761.31;5052331;28;20067;-46
2023/07/07 01:03:23;;;;;;;18.58;11.60;;;;;;;11.47;100.00;101765.69;5052476;28;20040;-48
2023/07/07 01:05:51;;;;;;;18.00;11.63;;;;;;;11.45;100.00;101769.00;5051914;28;20033;-49
2023/07/07 01:08:17;;;;;;;18.77;10.85;;;;;;;11.44;100.00;101772.41;5052496;28;20044;-49
2023/07/07 01:10:42;;;;;;;17.10;10.40;;;;;;;11.45;100.00;101780.25;5052256;28;20140;-49
2023/07/07 01:13:07;;;;;;;16.52;11.25;;;;;;;11.41;100.00;101777.44;5051634;28;20377;-46
2023/07/07 01:15:44;;;;;;;15.25;10.85;;;;;;;11.36;100.00;101775.56;5052295;28;20465;-48
2023/07/07 01:18:20;;;;;;;16.02;10.98;;;;;;;11.36;100.00;101774.66;5054023;28;20025;-45
2023/07/07 01:21:01;;;;;;;18.65;11.75;;;;;;;11.41;100.00;101778.31;5055471;28;20029;-47
2023/07/07 01:24:18;;;;;;;15.50;12.10;;;;;;;11.42;100.00;101774.94;5055946;28;20037;-45
2023/07/07 01:26:58;;;;;;;18.55;11.27;;;;;;;11.40;100.00;101775.69;5047174;28;20401;-48
2023/07/07 01:29:38;;;;;;;16.02;11.65;;;;;;;11.35;100.00;101770.34;5056044;28;20021;-46
2023/07/07 01:32:13;;;;;;;18.40;12.13;;;;;;;11.34;100.00;101771.16;5056379;28;20099;-48
2023/07/07 01:34:38;;;;;;;17.40;12.02;;;;;;;11.30;100.00;101777.03;5055184;28;20021;-47
2023/07/07 01:37:04;;;;;;;17.73;11.90;;;;;;;11.29;100.00;101783.88;5056230;28;20017;-45
2023/07/07 01:39:29;;;;;;;20.42;11.65;;;;;;;11.25;100.00;101770.78;5055361;28;20025;-48
2023/07/07 01:42:07;;;;;;;16.00;11.50;;;;;;;11.19;100.00;101768.81;5055596;28;20029;-46
2023/07/07 01:44:47;;;;;;;15.38;10.52;;;;;;;11.11;100.00;101778.81;5055546;28;20484;-46
2023/07/07 01:47:45;;;;;;;16.20;11.48;;;;;;;11.14;100.00;101771.22;5055993;28;20029;-47
2023/07/07 01:50:24;;;;;;;17.17;11.32;;;;;;;11.10;100.00;101766.72;5047990;28;20033;-48
2023/07/07 01:52:54;;;;;;;16.98;11.15;;;;;;;11.01;100.00;101772.41;5055784;28;20021;-47
2023/07/07 01:55:24;;;;;;;17.60;9.90;;;;;;;10.98;100.00;101769.66;5054980;28;20048;-47
2023/07/07 01:57:55;;;;;;;12.77;10.30;;;;;;;10.91;100.00;101770.25;5055944;28;20028;-46
2023/07/07 02:00:22;;;;;;;13.30;9.82;;;;;;;10.93;100.00;101763.44;5055899;28;20017;-48
2023/07/07 02:02:47;;;;;;;12.90;10.90;;;;;;;10.90;100.00;101762.41;5054656;28;20393;-46
2023/07/07 02:05:13;;;;;;;15.63;9.77;;;;;;;10.87;100.00;101768.31;5055514;28;20472;-48
2023/07/07 02:07:39;;;;;;;18.17;11.80;;;;;;;10.85;100.00;101770.84;5054977;28;20090;-49
2023/07/07 02:10:05;;;;;;;16.45;11.32;;;;;;;10.80;100.00;101764.59;5054946;28;20108;-46
2023/07/07 02:12:31;;;;;;;14.30;11.00;;;;;;;10.80;100.00;101763.72;5055350;28;20105;-48
2023/07/07 02:14:56;;;;;;;19.65;10.32;;;;;;;10.79;100.00;101762.84;5055156;28;20129;-47
2023/07/07 02:17:22;;;;;;;15.55;11.43;;;;;;;10.69;100.00;101761.56;5054731;28;20033;-49
2023/07/07 02:19:47;;;;;;;14.35;11.43;;;;;;;10.67;100.00;101750.28;5055356;28;20531;-48
2023/07/07 02:22:13;;;;;;;13.23;10.30;;;;;;;10.59;100.00;101758.50;5054751;28;20385;-48
2023/07/07 02:24:38;;;;;;;15.35;11.80;;;;;;;10.63;100.00;101757.84;5054400;28;20025;-46
2023/07/07 02:27:04;;;;;;;16.38;11.63;;;;;;;10.66;100.00;101763.13;5055252;28;20032;-46
2023/07/07 02:29:29;;;;;;;19.20;11.45;;;;;;;10.63;100.00;101760.44;5053107;28;20370;-46
2023/07/07 02:31:54;;;;;;;15.80;11.48;;;;;;;10.58;100.00;101760.22;5055220;28;20041;-47
2023/07/07 02:34:20;;;;;;;13.57;10.25;;;;;;;10.46;100.00;101765.72;5055023;28;20017;-48
2023/07/07 02:36:45;;;;;;;14.82;10.70;;;;;;;10.24;100.00;101763.81;5053903;28;20508;-46
2023/07/07 02:39:10;;;;;;;15.45;11.88;;;;;;;10.32;100.00;101772.78;5055190;28;20021;-48
2023/07/07 02:41:36;;;;;;;16.17;11.13;;;;;;;10.26;100.00;101772.50;5054735;28;20099;-44
2023/07/07 02:44:01;;;;;;;13.45;10.75;;;;;;;10.04;100.00;101768.03;5054170;28;20029;-48
2023/07/07 02:46:26;;;;;;;13.10;11.07;;;;;;;10.07;100.00;101765.63;5054535;28;20044;-45
2023/07/07 02:48:52;;;;;;;13.82;11.02;;;;;;;10.16;100.00;101770.28;5054763;28;20032;-48
2023/07/07 02:51:17;;;;;;;14.85;11.05;;;;;;;10.16;100.00;101776.34;5053905;28;20039;-47
2023/07/07 02:53:42;;;;;;;15.00;11.02;;;;;;;10.11;100.00;101772.69;5054520;28;20083;-48
2023/07/07 02:56:08;;;;;;;14.18;10.77;;;;;;;10.12;100.00;101774.44;5054869;28;20449;-48
2023/07/07 02:58:34;;;;;;;13.65;10.50;;;;;;;10.00;100.00;101773.88;5053380;28;20079;-44
2023/07/07 03:01:14;;;;;;;12.95;11.00;;;;;;;10.02;100.00;101787.72;5054666;28;20484;-45
2023/07/07 03:03:42;;;;;;;18.02;11.18;;;;;;;10.01;100.00;101786.81;5054044;28;20429;-47
2023/07/07 03:06:10;;;;;;;15.73;12.05;;;;;;;10.03;100.00;101780.06;5053756;28;20091;-47
2023/07/07 03:08:36;;;;;;;14.55;12.10;;;;;;;9.96;100.00;101782.28;5054087;28;20507;-46
2023/07/07 03:11:10;;;;;;;13.70;10.15;;;;;;;9.94;100.00;101783.88;5054218;28;20025;-47
2023/07/07 03:13:36;;;;;;;14.70;11.23;;;;;;;9.98;100.00;101780.63;5053421;28;20035;-48
2023/07/07 03:16:20;;;;;;;16.50;11.95;;;;;;;9.99;100.00;101784.97;5054276;28;20048;-47
2023/07/07 03:18:47;;;;;;;13.80;10.45;;;;;;;9.94;100.00;101783.88;5053308;28;20059;-49
2023/07/07 03:21:13;;;;;;;16.13;13.57;;;;;;;9.95;100.00;101785.66;5054318;28;20021;-49
2023/07/07 03:23:39;;;;;;;20.88;13.40;;;;;;;9.93;100.00;101793.31;5053777;28;20107;-48
2023/07/07 03:26:09;;;;;;;18.30;13.15;;;;;;;9.97;100.00;101781.47;5053202;28;20369;-47
2023/07/07 03:28:35;;;;;;;15.05;11.75;;;;;;;9.87;100.00;101788.72;5053699;28;20096;-45
2023/07/07 03:31:28;;;;;;;16.25;12.00;;;;;;;9.94;100.00;101789.03;5053892;28;20100;-49
2023/07/07 03:33:57;;;;;;;15.23;11.35;;;;;;;9.86;100.00;101789.56;5051550;28;20456;-46
2023/07/07 03:36:26;;;;;;;13.35;11.57;;;;;;;9.86;100.00;101792.13;5053695;28;20029;-46
2023/07/07 03:38:52;;;;;;;15.75;12.25;;;;;;;9.87;100.00;101793.00;5053564;28;20033;-48
2023/07/07 03:41:21;;;;;;;12.88;10.80;;;;;;;9.81;100.00;101785.88;5052927;28;20473;-49
2023/07/07 03:43:47;;;;;;;15.45;11.98;;;;;;;9.87;100.00;101786.16;5053587;28;20035;-44
2023/07/07 03:46:17;;;;;;;13.80;11.23;;;;;;;9.82;100.00;101790.19;5053498;28;20029;-46
2023/07/07 03:48:44;;;;;;;15.68;12.52;;;;;;;9.81;100.00;101791.03;5052985;28;20040;-48
2023/07/07 03:51:10;;;;;;;15.87;12.27;;;;;;;9.78;100.00;101783.16;5053484;28;20393;-47
2023/07/07 03:53:36;;;;;;;15.00;12.25;;;;;;;9.82;100.00;101792.78;5053148;28;20275;-47
2023/07/07 03:56:02;;;;;;;17.45;12.18;;;;;;;9.81;100.00;101787.56;5052799;28;20020;-44
2023/07/07 03:58:27;;;;;;;17.58;12.35;;;;;;;9.84;100.00;101790.28;5053318;28;20025;-49
2023/07/07 04:00:53;;;;;;;15.63;12.02;;;;;;;9.79;100.00;101784.91;5053323;28;20029;-50
2023/07/07 04:03:20;;;;;;;15.70;11.93;;;;;;;9.83;100.00;101791.97;5052854;28;20021;-47
2023/07/07 04:05:47;;;;;;;17.83;14.20;;;;;;;9.97;100.00;101789.19;5052941;28;20036;-49
2023/07/07 04:08:15;;;;;;;16.70;12.45;;;;;;;9.82;100.00;101785.06;5052426;28;20066;-48
2023/07/07 04:10:41;;;;;;;15.77;13.38;;;;;;;9.88;100.00;101784.47;5052885;28;20025;-50
2023/07/07 04:13:07;;;;;;;17.45;12.90;;;;;;;9.88;100.00;101795.66;5053235;28;20032;-46
2023/07/07 04:15:33;;;;;;;17.55;13.25;;;;;;;9.97;100.00;101794.34;5052365;28;20425;-48
2023/07/07 04:17:59;;;;;;;16.98;13.43;;;;;;;10.05;100.00;101787.84;5053245;28;20429;-47
2023/07/07 04:20:24;;;;;;;17.02;12.32;;;;;;;10.02;100.00;101787.72;5052846;28;20029;-45
2023/07/07 04:22:50;;;;;;;17.52;14.15;;;;;;;10.13;100.00;101804.53;5052056;28;20500;-46
2023/07/07 04:25:17;;;;;;;13.80;12.30;;;;;;;10.16;100.00;101806.38;5052910;28;20068;-46
2023/07/07 04:27:43;;;;;;;14.25;12.43;;;;;;;10.14;100.00;101803.72;5052692;28;20025;-47
2023/07/07 04:30:10;;;;;;;16.98;13.07;;;;;;;10.25;100.00;101801.66;5052323;28;20135;-47
2023/07/07 04:32:39;;;;;;;15.50;12.93;;;;;;;10.27;100.00;101804.31;5052482;28;20477;-44
2023/07/07 04:35:05;;;;;;;16.30;12.93;;;;;;;10.33;100.00;101805.47;5052721;28;20071;-47
2023/07/07 04:37:31;;;;;;;22.15;13.90;;;;;;;10.44;100.00;101811.13;5051960;28;20133;-47
2023/07/07 04:39:57;;;;;;;18.48;13.55;;;;;;;10.52;100.00;101807.22;5052782;28;20038;-44
2023/07/07 04:42:23;;;;;;;19.30;13.73;;;;;;;10.58;100.00;101804.03;5052481;28;20017;-43
2023/07/07 04:44:48;;;;;;;15.65;12.80;;;;;;;10.68;100.00;101802.75;5052225;28;20029;-43
2023/07/07 04:47:13;;;;;;;17.50;13.27;;;;;;;10.81;100.00;101804.19;5052958;28;20099;-47
2023/07/07 04:49:39;;;;;;;17.98;13.43;;;;;;;10.82;100.00;101793.03;5052231;28;20032;-44
2023/07/07 04:52:05;;;;;;;20.25;14.25;;;;;;;10.98;100.00;101798.03;5052769;28;20116;-46
2023/07/07 04:54:30;;;;;;;19.08;13.90;;;;;;;11.14;100.00;101799.59;5059019;28;20021;-44
2023/07/07 04:56:56;;;;;;;18.48;13.57;;;;;;;11.24;100.00;101789.66;5059422;28;20033;-45
2023/07/07 04:59:21;;;;;;;19.40;13.68;;;;;;;11.33;100.00;101795.19;5058833;28;20063;-45
2023/07/07 05:01:46;;;;;;;16.27;12.88;;;;;;;11.55;100.00;101790.94;5059179;28;20031;-45
2023/07/07 05:04:12;;;;;;;14.98;11.02;;;;;;;11.77;100.00;101795.25;5059009;28;20394;-45
2023/07/07 05:06:39;;;;;;;18.15;12.23;;;;;;;11.93;100.00;101796.72;5058525;28;20468;-44
2023/07/07 05:09:06;;;;;;;15.88;11.95;;;;;;;12.06;100.00;101800.72;5059370;28;20090;-43
2023/07/07 05:11:33;;;;;;;13.93;10.35;;;;;;;12.25;100.00;101802.31;5057976;28;20021;-48
2023/07/07 05:13:59;;;;;;;14.20;9.38;;;;;;;12.34;100.00;101800.06;5059517;28;20064;-49
2023/07/07 05:16:33;;;;;;;13.88;8.73;;;;;;;12.57;100.00;101797.47;5058751;28;20036;-43
2023/07/07 05:18:58;;;;;;;15.23;8.77;;;;;;;12.76;100.00;101797.28;5058344;28;20033;-43
2023/07/07 05:21:25;;;;;;;12.95;8.45;;;;;;;12.92;100.00;101797.84;5058649;28;20035;-43
2023/07/07 05:23:53;;;;;;;12.65;7.88;;;;;;;13.31;100.00;101800.03;5058875;28;20076;-44
2023/07/07 05:26:20;;;;;;;12.88;7.70;;;;;;;13.43;100.00;101800.50;5058373;28;20025;-45
2023/07/07 05:28:46;;;;;;;11.77;6.55;;;;;;;13.65;100.00;101796.88;5058953;28;20025;-45
2023/07/07 05:31:11;;;;;;;11.77;7.22;;;;;;;13.78;100.00;101795.56;5058948;28;20036;-44
2023/07/07 05:33:38;;;;;;;12.82;7.22;;;;;;;13.98;100.00;101803.97;5058214;28;20028;-44
2023/07/07 05:36:05;;;;;;;12.00;6.93;;;;;;;14.11;100.00;101804.31;5058823;28;20429;-49
2023/07/07 05:38:31;;;;;;;9.55;6.80;;;;;;;14.20;100.00;101804.59;5058283;28;20440;-46
2023/07/07 05:40:57;;;;;;;11.68;7.35;;;;;;;14.29;99.71;101807.50;5058565;28;20017;-48
2023/07/07 05:43:24;;;;;;;13.25;7.28;;;;;;;14.42;98.05;101800.94;5058639;28;20028;-46
2023/07/07 05:46:01;;;;;;;11.98;7.00;;;;;;;14.55;97.31;101803.88;5058626;28;20056;-44
2023/07/07 05:48:27;;;;;;;14.95;6.85;;;;;;;14.74;96.24;101798.41;5057997;28;20073;-43
2023/07/07 05:50:58;;;;;;;15.15;6.80;;;;;;;14.89;95.74;101812.66;5058734;28;20036;-49
2023/07/07 05:53:24;;;;;;;11.77;6.53;;;;;;;14.99;95.59;101814.66;5058445;28;20056;-45
2023/07/07 05:55:50;;;;;;;9.43;5.93;;;;;;;15.15;93.52;101805.56;5058196;28;20053;-48
2023/07/07 05:58:17;;;;;;;10.88;6.10;;;;;;;15.31;92.71;101810.31;5058852;28;20043;-44
2023/07/07 06:00:43;;;;;;;11.45;6.00;;;;;;;15.43;93.15;101809.75;5058069;28;20020;-43
2023/07/07 06:03:08;;;;;;;11.45;6.20;;;;;;;15.55;90.41;101810.88;5058643;28;20385;-47
2023/07/07 06:05:34;;;;;;;10.65;6.30;;;;;;;15.63;91.19;101810.25;5055350;28;20112;-43
2023/07/07 06:08:00;;;;;;;10.00;6.07;;;;;;;15.77;90.33;101812.28;5054836;28;20029;-44
2023/07/07 06:10:25;;;;;;;10.40;6.07;;;;;;;15.88;88.27;101809.94;5055290;28;20032;-44
2023/07/07 06:12:51;;;;;;;10.60;6.13;;;;;;;16.03;86.85;101810.31;5055453;28;20017;-43
2023/07/07 06:15:17;;;;;;;8.95;5.90;;;;;;;16.12;87.69;101810.50;5054562;28;20104;-44
2023/07/07 06:17:44;;;;;;;11.60;6.13;;;;;;;16.26;85.76;101812.53;5055047;28;20176;-43
2023/07/07 06:20:11;;;;;;;10.82;5.90;;;;;;;16.36;85.19;101814.50;5055243;28;20052;-43
2023/07/07 06:22:36;;;;;;;8.43;6.10;;;;;;;16.49;84.65;101814.72;5054330;28;20056;-43
2023/07/07 06:25:03;;;;;;;9.48;5.85;;;;;;;16.62;81.28;101816.75;5055190;28;20025;-48
2023/07/07 06:27:28;;;;;;;11.75;6.55;;;;;;;16.75;81.47;101810.06;5054597;28;20916;-44
2023/07/07 06:29:53;;;;;;;9.40;5.40;;;;;;;16.85;81.61;101811.09;5054579;28;20035;-47
2023/07/07 06:32:18;;;;;;;11.48;5.38;;;;;;;16.94;81.39;101814.81;5054964;28;20027;-44
2023/07/07 06:34:44;;;;;;;9.45;5.55;;;;;;;17.08;82.26;101812.47;5054592;28;20031;-43
2023/07/07 06:37:09;;;;;;;9.45;5.43;;;;;;;17.12;81.95;101821.22;5054549;28;20021;-47
2023/07/07 06:39:35;;;;;;;11.75;5.75;;;;;;;17.23;82.14;101814.44;5054791;28;20025;-43
2023/07/07 06:42:01;;;;;;;9.73;5.47;;;;;;;17.36;77.86;101818.16;5054757;28;20017;-43
2023/07/07 06:44:27;;;;;;;10.48;5.00;;;;;;;17.53;79.09;101817.56;5054024;28;20093;-43
2023/07/07 06:46:53;;;;;;;9.23;5.10;;;;;;;17.65;77.47;101817.75;5054645;28;20116;-45
2023/07/07 06:49:18;;;;;;;10.95;4.63;;;;;;;17.82;76.17;101822.34;5054691;28;20103;-46
2023/07/07 06:51:44;;;;;;;10.15;4.65;;;;;;;18.02;76.21;101831.38;5054000;28;20052;-42
2023/07/07 06:54:09;;;;;;;9.40;4.65;;;;;;;17.97;73.99;101827.81;5054547;28;20017;-43
2023/07/07 06:56:34;;;;;;;9.50;4.35;;;;;;;18.10;74.99;101827.16;5054050;28;20044;-44
2023/07/07 06:59:00;;;;;;;9.32;4.60;;;;;;;18.20;73.64;101829.88;5053986;28;20025;-44
2023/07/07 07:01:25;;;;;;;8.85;4.70;;;;;;;18.27;71.60;101830.00;5054156;28;20373;-44
2023/07/07 07:03:50;;;;;;;8.35;4.20;;;;;;;18.42;74.27;101826.72;5053800;28;20415;-44
2023/07/07 07:06:16;;;;;;;9.52;4.30;;;;;;;18.52;73.63;101832.06;5054385;28;20025;-43
2023/07/07 07:08:41;;;;;;;10.48;4.78;;;;;;;18.68;70.89;101834.00;5054387;28;20360;-45
2023/07/07 07:11:07;;;;;;;8.55;4.13;;;;;;;18.74;67.69;101833.19;5053554;28;20029;-46
2023/07/07 07:13:33;;;;;;;6.57;3.67;;;;;;;18.90;67.59;101829.03;5053999;28;20029;-48
2023/07/07 07:15:58;;;;;;;7.18;4.38;;;;;;;18.95;66.90;101832.56;5053627;28;20530;-44
2023/07/07 07:18:24;;;;;;;9.13;4.15;;;;;;;19.09;67.88;101832.72;5053304;28;20020;-47
2023/07/07 07:20:51;;;;;;;8.07;4.13;;;;;;;19.29;68.16;101838.13;5054227;28;20067;-42
2023/07/07 07:23:17;;;;;;;11.32;4.55;;;;;;;19.37;67.64;101840.81;5053721;28;20052;-44
2023/07/07 07:25:43;;;;;;;8.25;4.20;;;;;;;19.48;69.11;101843.53;5053237;28;20033;-43
2023/07/07 07:28:09;;;;;;;8.32;4.18;;;;;;;19.57;68.43;101839.25;5054044;28;20122;-42
2023/07/07 07:30:35;;;;;;;7.77;3.93;;;;;;;19.69;66.62;101843.69;5053361;28;20100;-48
2023/07/07 07:33:04;;;;;;;8.00;4.05;;;;;;;19.74;67.41;101842.00;5053541;28;20112;-42
2023/07/07 07:35:29;;;;;;;9.20;4.15;;;;;;;19.84;65.25;101847.31;5053755;28;20025;-45
2023/07/07 07:37:55;;;;;;;7.70;4.10;;;;;;;19.92;63.59;101843.00;5053540;28;20017;-44
2023/07/07 07:40:23;;;;;;;8.32;4.00;;;;;;;20.05;65.39;101847.47;5053165;28;20108;-43
2023/07/07 07:42:49;;;;;;;8.23;3.90;;;;;;;20.30;65.77;101842.38;5053770;28;20465;-46
2023/07/07 07:45:18;;;;;;;8.80;3.47;;;;;;;20.33;65.08;101852.84;5053206;28;20067;-43
2023/07/07 07:47:44;;;;;;;8.68;3.70;;;;;;;20.39;62.14;101844.16;5052663;28;20031;-48
2023/07/07 07:50:09;;;;;;;7.78;3.47;;;;;;;20.61;63.53;101845.13;5053562;28;20025;-45
2023/07/07 07:52:34;;;;;;;8.77;3.65;;;;;;;20.63;60.32;101851.25;5052984;28;20028;-47
2023/07/07 07:55:00;;;;;;;7.35;3.20;;;;;;;20.68;59.77;101849.53;5053233;28;20037;-43
2023/07/07 07:57:25;;;;;;;9.15;3.50;;;;;;;20.79;60.76;101848.72;5053306;28;20036;-44
2023/07/07 07:59:50;;;;;;;5.95;3.10;;;;;;;20.90;61.75;101846.97;5053200;28;20108;-44
2023/07/07 08:02:16;;;;;;;8.00;3.13;;;;;;;21.10;59.31;101856.66;5052970;28;20045;-48
2023/07/07 08:04:41;;;;;;;7.05;3.13;;;;;;;21.19;56.58;101856.66;5053095;28;20410;-45
2023/07/07 08:07:06;;;;;;;9.63;3.10;;;;;;;21.23;54.34;101850.56;5052626;28;20033;-44
2023/07/07 08:09:32;;;;;;;13.82;3.70;;;;;;;21.37;54.09;101859.31;5052933;28;20021;-43
2023/07/07 08:11:59;;;;;;;7.53;3.17;;;;;;;21.55;55.83;101855.00;5053104;28;20032;-48
2023/07/07 08:14:30;;;;;;;;;;;;;;;21.54;55.50;101853.19;5052399;28;20524;-44
2023/07/07 08:17:04;;;;;;;5.65;3.35;;;;;;;21.63;52.06;101858.47;5053375;28;19987;-44
2023/07/07 08:19:32;;;;;;;8.60;3.05;;;;;;;21.85;52.24;101853.22;5052629;28;20131;-44
2023/07/07 08:21:57;;;;;;;7.10;3.33;;;;;;;21.86;51.40;101853.22;5052518;28;20110;-44
2023/07/07 08:24:24;;;;;;;6.68;2.53;;;;;;;22.00;52.59;101853.19;5052552;28;20083;-44
2023/07/07 08:26:50;;;;;;;6.90;2.78;;;;;;;22.20;51.57;101852.25;5052273;28;20044;-44
2023/07/07 08:29:15;;;;;;;6.15;2.75;;;;;;;22.28;50.22;101855.72;5052185;28;20017;-44
2023/07/07 08:31:41;;;;;;;8.27;2.85;;;;;;;22.34;49.60;101853.09;5052827;28;20044;-46
2023/07/07 08:34:06;;;;;;;7.53;2.70;;;;;;;22.41;50.60;101855.72;5052797;28;20033;-49
2023/07/07 08:36:31;;;;;;;9.13;3.10;;;;;;;22.52;49.34;101852.19;5052077;28;20520;-47
2023/07/07 08:39:08;;;;;;;7.35;3.40;;;;;;;22.64;50.10;101859.13;5052745;28;20021;-45
2023/07/07 08:41:33;;;;;;;7.90;3.25;;;;;;;22.77;50.99;101856.44;5052108;28;20021;-48
2023/07/07 08:43:59;;;;;;;7.82;3.15;;;;;;;22.96;51.04;101860.72;5051995;28;20079;-45
2023/07/07 08:47:00;;;;;;;5.18;2.90;;;;;;;23.07;49.94;101851.88;5052524;28;20028;-44
2023/07/07 08:49:41;;;;;;;7.00;2.50;;;;;;;23.13;47.74;101862.38;5052018;28;20518;-49
2023/07/07 08:52:43;;;;;;;6.25;2.55;;;;;;;23.17;48.97;101857.09;5052854;28;20031;-45
2023/07/07 08:55:27;;;;;;;7.57;3.17;;;;;;;23.27;48.87;101857.06;5052329;28;20521;-48
2023/07/07 08:58:40;;;;;;;6.15;2.83;;;;;;;23.37;49.15;101849.94;5051982;28;20033;-47
2023/07/07 09:01:25;;;;;;;6.80;2.85;;;;;;;23.51;49.58;101858.59;5042777;28;20045;-44
2023/07/07 09:04:16;;;;;;;9.32;3.42;;;;;;;23.52;47.07;101855.09;5051665;28;20411;-50
2023/07/07 09:06:59;;;;;;;6.45;2.40;;;;;;;23.74;48.31;101857.53;5052011;28;20405;-48
2023/07/07 09:10:13;;;;;;;6.95;2.80;;;;;;;23.87;51.08;101858.28;5052116;28;20025;-48
2023/07/07 09:12:46;;;;;;;6.70;2.42;;;;;;;24.13;46.96;101855.41;5051499;28;20041;-46
2023/07/07 09:15:26;;;;;;;9.48;2.88;;;;;;;24.21;46.05;101848.31;5052534;28;20021;-46
2023/07/07 09:18:07;;;;;;;7.25;3.15;;;;;;;24.28;44.84;101859.66;5051755;28;20021;-46
2023/07/07 09:20:35;;;;;;;6.85;2.97;;;;;;;24.38;42.95;101865.69;5052264;28;20033;-44
2023/07/07 09:23:07;;;;;;;7.68;2.50;;;;;;;24.42;43.65;101862.13;5051979;28;20045;-43
2023/07/07 09:25:36;;;;;;;7.53;2.90;;;;;;;24.59;43.97;101849.59;5051572;28;20033;-47
2023/07/07 09:28:07;;;;;;;6.28;2.58;;;;;;;24.73;43.26;101861.75;5052285;28;20048;-45
2023/07/07 09:30:49;;;;;;;5.75;2.80;;;;;;;24.54;39.61;101853.19;5051743;28;20028;-42
2023/07/07 09:33:18;;;;;;;6.90;2.72;;;;;;;24.58;39.20;101853.13;5051646;28;20029;-43
2023/07/07 09:36:16;;;;;;;7.05;2.58;;;;;;;24.77;41.96;101845.00;5051923;28;20025;-47
2023/07/07 09:38:52;;;;;;;7.72;3.10;;;;;;;24.85;40.94;101844.91;5051743;28;20025;-47
2023/07/07 09:41:23;;;;;;;9.40;2.70;;;;;;;25.03;42.27;101849.03;5056013;28;20104;-47
2023/07/07 09:44:18;;;;;;;6.93;2.65;;;;;;;25.07;39.93;101851.56;5055560;28;20502;-47
2023/07/07 09:47:00;;;;;;;8.43;3.17;;;;;;;25.11;39.65;101845.38;5053913;28;20072;-48
2023/07/07 09:49:32;;;;;;;7.82;3.00;;;;;;;25.21;38.42;101848.72;5055627;28;20032;-48
2023/07/07 09:52:00;;;;;;;6.00;2.70;;;;;;;25.59;40.95;101849.91;5055690;28;20021;-48
2023/07/07 09:54:27;;;;;;;12.57;3.00;;;;;;;25.79;39.46;101841.63;5055134;28;20029;-43
2023/07/07 09:56:59;;;;;;;6.93;3.25;;;;;;;26.13;41.47;101838.38;5055670;28;20473;-43
2023/07/07 09:59:35;;;;;;;10.20;3.50;;;;;;;26.78;39.88;101833.53;5055209;28;20079;-48
2023/07/07 10:02:05;;;;;;;10.93;3.60;;;;;;;26.81;37.63;101838.75;5055422;28;20027;-43
2023/07/07 10:04:31;;;;;;;9.10;3.08;;;;;;;26.92;36.51;101834.09;5055285;28;20272;-48
2023/07/07 10:06:59;;;;;;;10.38;3.25;;;;;;;26.59;35.97;101836.53;5054569;28;20439;-46
2023/07/07 10:09:26;;;;;;;6.88;2.58;;;;;;;26.44;32.91;101840.41;5055438;28;20056;-46
2023/07/07 10:11:51;;;;;;;;;;;;;;;26.73;38.16;101838.06;5055617;28;20037;-47
2023/07/07 10:14:17;;;;;;;10.02;3.28;;;;;;;28.16;31.51;101830.97;5054810;28;19916;-43
2023/07/07 10:17:30;;;;;;;6.80;3.25;;;;;;;28.20;36.88;101829.94;5055116;28;20029;-48
2023/07/07 10:19:58;;;;;;;7.53;3.28;;;;;;;28.03;32.99;101818.94;5050318;28;20033;-43
2023/07/07 10:22:24;;;;;;;7.95;3.10;;;;;;;29.21;32.61;101825.06;5054351;28;20037;-46
2023/07/07 10:24:49;;;;;;;7.55;3.35;;;;;;;29.14;32.47;101827.97;5055299;28;20029;-48
2023/07/07 10:27:18;;;;;;;8.93;2.78;;;;;;;29.46;29.17;101824.28;5054986;28;20469;-50
2023/07/07 10:29:46;;;;;;;6.35;3.05;;;;;;;29.39;28.54;101820.13;5054230;28;20033;-44
2023/07/07 10:32:20;;;;;;;9.45;3.10;;;;;;;29.66;30.37;101822.72;5055320;28;20146;-43
2023/07/07 10:34:52;;;;;;;7.03;2.80;;;;;;;31.23;30.72;101818.53;5054675;28;20085;-47
2023/07/07 10:37:26;;;;;;;7.95;2.65;;;;;;;32.20;28.13;101820.56;5055009;28;20438;-45
2023/07/07 10:39:55;;;;;;;8.13;3.47;;;;;;;32.89;27.97;101817.28;5054827;28;20040;-43
2023/07/07 10:42:23;;;;;;;7.28;2.80;;;;;;;33.26;26.52;101827.91;5054272;28;20476;-44
2023/07/07 10:44:50;;;;;;;5.75;3.00;;;;;;;33.28;24.77;101823.41;5054954;28;20071;-47
2023/07/07 10:47:19;;;;;;;6.97;2.50;;;;;;;33.96;24.97;101826.09;5054571;28;20025;-44
2023/07/07 10:49:45;;;;;;;10.18;3.10;;;;;;;33.55;24.96;101822.94;5053800;28;20079;-48
2023/07/07 10:52:40;;;;;;;5.33;3.03;;;;;;;34.49;27.08;101809.84;5053950;28;20029;-45
2023/07/07 10:55:05;;;;;;;6.88;2.80;;;;;;;34.30;20.82;101824.22;5054701;28;20029;-46
2023/07/07 10:57:43;;;;;;;5.33;2.97;;;;;;;34.22;23.54;101822.94;5054039;28;20033;-44
2023/07/07 11:00:47;;;;;;;7.55;2.80;;;;;;;33.85;23.81;101809.75;5054750;28;20067;-46
2023/07/07 11:03:35;;;;;;;8.27;3.03;;;;;;;33.35;23.79;101816.81;5053828;28;20029;-47
2023/07/07 11:06:09;;;;;;;6.82;2.95;;;;;;;32.43;22.03;101815.00;5051189;28;20523;-45
2023/07/07 11:09:13;;;;;;;6.03;2.92;;;;;;;34.27;22.45;101812.84;5053986;28;20057;-48
2023/07/07 11:11:54;;;;;;;7.35;2.72;;;;;;;35.21;24.04;101811.97;5031392;28;20099;-47
2023/07/07 11:14:25;;;;;;;8.70;2.90;;;;;;;35.75;22.14;101816.78;5052000;28;20493;-48
2023/07/07 11:17:38;;;;;;;6.60;2.85;;;;;;;35.63;22.25;101809.50;5054197;28;20060;-49
2023/07/07 11:20:17;;;;;;;6.30;2.88;;;;;;;35.77;20.85;101812.19;5052092;28;20166;-48
2023/07/07 11:23:01;;;;;;;7.63;3.67;;;;;;;34.98;23.15;101802.63;5053611;28;20053;-47
2023/07/07 11:25:37;;;;;;;8.35;2.90;;;;;;;34.98;24.11;101805.31;5053140;28;20032;-46
2023/07/07 11:28:26;;;;;;;7.07;3.10;;;;;;;36.11;23.43;101795.81;5054091;28;20021;-47